createdAt,value
2023-05-09T00:00:11.974Z,966.94
2023-05-09T00:01:11.991Z,966.90
2023-05-09T00:02:12.129Z,966.86
2023-05-09T00:03:11.944Z,966.87
2023-05-09T00:04:12.166Z,966.85
2023-05-09T00:05:11.835Z,966.85
2023-05-09T00:06:11.759Z,966.83
2023-05-09T00:07:11.682Z,966.86
2023-05-09T00:08:11.924Z,966.84
2023-05-09T00:09:11.591Z,966.83
2023-05-09T00:10:11.744Z,966.81
2023-05-09T00:11:11.514Z,966.86
2023-05-09T00:12:11.469Z,966.85
2023-05-09T00:13:11.791Z,966.83
2023-05-09T00:14:11.387Z,966.81
2023-05-09T00:15:11.643Z,966.81
2023-05-09T00:16:11.344Z,966.83
2023-05-09T00:17:11.578Z,966.80
2023-05-09T00:18:11.211Z,966.86
2023-05-09T00:19:11.401Z,966.85
2023-05-09T00:20:11.136Z,966.80
2023-05-09T00:21:11.202Z,966.83
2023-05-09T00:22:11.050Z,966.83
2023-05-09T00:23:11.295Z,966.82
2023-05-09T00:24:10.957Z,966.82
2023-05-09T00:25:11.241Z,966.83
2023-05-09T00:26:10.870Z,966.83
2023-05-09T00:27:11.050Z,966.81
2023-05-09T00:28:10.802Z,966.80
2023-05-09T00:29:10.767Z,966.77
2023-05-09T00:30:10.709Z,966.74
2023-05-09T00:31:10.870Z,966.72
2023-05-09T00:32:10.699Z,966.73
2023-05-09T00:33:10.934Z,966.74
2023-05-09T00:34:10.534Z,966.73
2023-05-09T00:35:10.739Z,966.68
2023-05-09T00:36:10.695Z,966.68
2023-05-09T00:37:10.430Z,966.63
2023-05-09T00:38:10.520Z,966.60
2023-05-09T00:39:10.591Z,966.60
2023-05-09T00:40:10.278Z,966.59
2023-05-09T00:41:10.234Z,966.56
2023-05-09T00:42:10.537Z,966.54
2023-05-09T00:43:10.148Z,966.53
2023-05-09T00:44:10.240Z,966.49
2023-05-09T00:45:10.062Z,966.50
2023-05-09T00:46:10.044Z,966.47
2023-05-09T00:47:09.981Z,966.46
2023-05-09T00:48:09.967Z,966.46
2023-05-09T00:49:10.079Z,966.42
2023-05-09T00:50:09.858Z,966.42
2023-05-09T00:51:09.887Z,966.41
2023-05-09T00:52:09.764Z,966.37
2023-05-09T00:53:09.896Z,966.36
2023-05-09T00:54:09.748Z,966.35
2023-05-09T00:55:09.715Z,966.35
2023-05-09T00:56:09.608Z,966.36
2023-05-09T00:57:09.724Z,966.35
2023-05-09T00:58:09.510Z,966.33
2023-05-09T00:59:09.549Z,966.32
2023-05-09T01:00:09.454Z,966.36
2023-05-09T01:01:09.581Z,966.32
2023-05-09T01:02:09.345Z,966.30
2023-05-09T01:03:09.364Z,966.29
2023-05-09T01:04:09.449Z,966.26
2023-05-09T01:05:09.382Z,966.29
2023-05-09T01:06:09.197Z,966.29
2023-05-09T01:07:09.187Z,966.26
2023-05-09T01:08:09.250Z,966.24
2023-05-09T01:09:09.046Z,966.24
2023-05-09T01:10:09.216Z,966.23
2023-05-09T01:11:08.970Z,966.21
2023-05-09T01:12:09.014Z,966.18
2023-05-09T01:13:08.880Z,966.17
2023-05-09T01:14:09.028Z,966.14
2023-05-09T01:15:08.790Z,966.11
2023-05-09T01:16:09.164Z,966.10
2023-05-09T01:17:08.700Z,966.12
2023-05-09T01:18:08.896Z,966.12
2023-05-09T01:19:08.623Z,966.08
2023-05-09T01:20:08.573Z,966.09
2023-05-09T01:21:08.545Z,966.08
2023-05-09T01:22:08.684Z,966.12
2023-05-09T01:23:08.444Z,966.13
2023-05-09T01:24:08.704Z,966.13
2023-05-09T01:25:08.352Z,966.14
2023-05-09T01:26:08.333Z,966.17
2023-05-09T01:27:08.282Z,966.18
2023-05-09T01:28:08.326Z,966.21
2023-05-09T01:29:08.196Z,966.23
2023-05-09T01:30:08.534Z,966.22
2023-05-09T01:31:08.151Z,966.25
2023-05-09T01:32:08.076Z,966.20
2023-05-09T01:33:08.203Z,966.25
2023-05-09T01:34:07.979Z,966.21
2023-05-09T01:35:08.168Z,966.21
2023-05-09T01:36:07.916Z,966.17
2023-05-09T01:37:07.844Z,966.19
2023-05-09T01:38:07.806Z,966.16
2023-05-09T01:39:07.995Z,966.15
2023-05-09T01:40:07.718Z,966.13
2023-05-09T01:41:07.796Z,966.15
2023-05-09T01:42:07.876Z,966.16
2023-05-09T01:43:07.599Z,966.15
2023-05-09T01:44:07.671Z,966.17
2023-05-09T01:45:07.622Z,966.17
2023-05-09T01:46:07.481Z,966.15
2023-05-09T01:47:07.650Z,966.16
2023-05-09T01:48:07.398Z,966.15
2023-05-09T01:49:07.337Z,966.07
2023-05-09T01:50:07.315Z,966.11
2023-05-09T01:51:07.459Z,966.10
2023-05-09T01:52:07.325Z,966.11
2023-05-09T01:53:07.272Z,966.11
2023-05-09T01:54:07.114Z,966.12
2023-05-09T01:55:07.289Z,966.12
2023-05-09T01:56:07.038Z,966.12
2023-05-09T01:57:07.093Z,966.12
2023-05-09T01:58:06.953Z,966.12
2023-05-09T01:59:07.120Z,966.12
2023-05-09T02:00:06.919Z,966.12
2023-05-09T02:01:06.998Z,966.09
2023-05-09T02:02:06.959Z,966.12
2023-05-09T02:03:06.742Z,966.08
2023-05-09T02:04:06.734Z,966.06
2023-05-09T02:05:06.662Z,966.04
2023-05-09T02:06:06.602Z,966.02
2023-05-09T02:07:06.623Z,966.05
2023-05-09T02:08:06.562Z,966.06
2023-05-09T02:09:06.483Z,966.07
2023-05-09T02:10:06.579Z,966.10
2023-05-09T02:11:06.399Z,966.11
2023-05-09T02:12:06.349Z,966.09
2023-05-09T02:13:06.609Z,966.09
2023-05-09T02:14:06.272Z,966.06
2023-05-09T02:15:06.413Z,966.02
2023-05-09T02:16:06.237Z,966.00
2023-05-09T02:17:06.591Z,965.97
2023-05-09T02:18:06.122Z,965.98
2023-05-09T02:19:06.233Z,965.93
2023-05-09T02:20:06.008Z,965.93
2023-05-09T02:21:06.080Z,965.93
2023-05-09T02:22:05.978Z,965.93
2023-05-09T02:23:05.925Z,965.91
2023-05-09T02:24:05.888Z,965.95
2023-05-09T02:25:06.000Z,965.93
2023-05-09T02:26:05.751Z,965.93
2023-05-09T02:27:05.972Z,965.91
2023-05-09T02:28:05.738Z,965.92
2023-05-09T02:29:05.655Z,965.86
2023-05-09T02:30:05.767Z,965.88
2023-05-09T02:31:05.726Z,965.84
2023-05-09T02:32:05.519Z,965.85
2023-05-09T02:33:05.553Z,965.82
2023-05-09T02:34:05.407Z,965.79
2023-05-09T02:35:05.376Z,965.83
2023-05-09T02:36:05.745Z,965.80
2023-05-09T02:37:05.292Z,965.77
2023-05-09T02:38:05.357Z,965.77
2023-05-09T02:39:05.199Z,965.77
2023-05-09T02:40:05.370Z,965.77
2023-05-09T02:41:05.116Z,965.73
2023-05-09T02:42:05.170Z,965.75
2023-05-09T02:43:05.022Z,965.75
2023-05-09T02:44:05.457Z,965.77
2023-05-09T02:45:04.941Z,965.77
2023-05-09T02:46:04.956Z,965.80
2023-05-09T02:47:04.869Z,965.78
2023-05-09T02:48:07.739Z,965.84
2023-05-09T02:49:04.789Z,965.83
2023-05-09T02:50:04.839Z,965.86
2023-05-09T02:51:04.691Z,965.85
2023-05-09T02:52:04.886Z,965.85
2023-05-09T02:53:04.855Z,965.87
2023-05-09T02:54:04.562Z,965.87
2023-05-09T02:55:04.656Z,965.90
2023-05-09T02:56:04.464Z,965.87
2023-05-09T02:57:04.663Z,965.87
2023-05-09T02:58:13.382Z,965.85
2023-05-09T02:59:04.357Z,965.85
2023-05-09T03:00:04.498Z,965.84
2023-05-09T03:01:04.313Z,965.86
2023-05-09T03:02:04.255Z,965.85
2023-05-09T03:03:04.258Z,965.83
2023-05-09T03:04:04.139Z,965.81
2023-05-09T03:05:04.420Z,965.77
2023-05-09T03:06:04.056Z,965.81
2023-05-09T03:07:04.124Z,965.75
2023-05-09T03:08:04.229Z,965.74
2023-05-09T03:09:03.918Z,965.74
2023-05-09T03:10:03.884Z,965.75
2023-05-09T03:11:03.970Z,965.73
2023-05-09T03:12:03.806Z,965.72
2023-05-09T03:13:04.039Z,965.71
2023-05-09T03:14:03.705Z,965.76
2023-05-09T03:15:03.684Z,965.74
2023-05-09T03:16:03.863Z,965.78
2023-05-09T03:17:03.867Z,965.78
2023-05-09T03:18:03.690Z,965.82
2023-05-09T03:19:03.492Z,965.80
2023-05-09T03:20:04.401Z,965.80
2023-05-09T03:21:03.426Z,965.78
2023-05-09T03:22:03.624Z,965.72
2023-05-09T03:23:03.329Z,965.70
2023-05-09T03:24:03.647Z,965.69
2023-05-09T03:25:03.244Z,965.67
2023-05-09T03:26:03.201Z,965.71
2023-05-09T03:27:03.155Z,965.69
2023-05-09T03:28:03.285Z,965.68
2023-05-09T03:29:03.068Z,965.72
2023-05-09T03:30:03.290Z,965.71
2023-05-09T03:31:03.000Z,965.73
2023-05-09T03:32:02.937Z,965.78
2023-05-09T03:33:02.927Z,965.76
2023-05-09T03:34:03.213Z,965.78
2023-05-09T03:35:02.818Z,965.77
2023-05-09T03:36:03.017Z,965.81
2023-05-09T03:37:02.722Z,965.80
2023-05-09T03:38:02.682Z,965.79
2023-05-09T03:39:02.831Z,965.79
2023-05-09T03:40:02.623Z,965.75
2023-05-09T03:41:02.641Z,965.78
2023-05-09T03:42:02.509Z,965.78
2023-05-09T03:43:02.493Z,965.73
2023-05-09T03:44:02.426Z,965.77
2023-05-09T03:45:02.468Z,965.74
2023-05-09T03:46:02.363Z,965.72
2023-05-09T03:47:02.545Z,965.72
2023-05-09T03:48:02.301Z,965.74
2023-05-09T03:49:02.204Z,965.73
2023-05-09T03:50:02.180Z,965.74
2023-05-09T03:51:02.304Z,965.71
2023-05-09T03:52:02.357Z,965.71
2023-05-09T03:53:02.115Z,965.67
2023-05-09T03:54:01.999Z,965.66
2023-05-09T03:55:01.963Z,965.65
2023-05-09T03:56:02.146Z,965.64
2023-05-09T03:57:01.874Z,965.61
2023-05-09T03:58:01.949Z,965.62
2023-05-09T03:59:01.782Z,965.60
2023-05-09T04:00:02.018Z,965.61
2023-05-09T04:01:01.701Z,965.59
2023-05-09T04:02:01.804Z,965.64
2023-05-09T04:03:01.690Z,965.61
2023-05-09T04:04:01.818Z,965.62
2023-05-09T04:05:01.537Z,965.65
2023-05-09T04:06:01.510Z,965.64
2023-05-09T04:07:01.457Z,965.65
2023-05-09T04:08:01.620Z,965.65
2023-05-09T04:09:01.366Z,965.69
2023-05-09T04:10:01.424Z,965.71
2023-05-09T04:11:01.281Z,965.73
2023-05-09T04:12:01.480Z,965.73
2023-05-09T04:13:01.284Z,965.74
2023-05-09T04:14:01.250Z,965.70
2023-05-09T04:15:01.112Z,965.67
2023-05-09T04:16:01.262Z,965.66
2023-05-09T04:17:01.197Z,965.68
2023-05-09T04:18:00.996Z,965.68
2023-05-09T04:19:01.080Z,965.64
2023-05-09T04:20:00.892Z,965.62
2023-05-09T04:21:02.153Z,965.66
2023-05-09T04:22:00.801Z,965.65
2023-05-09T04:23:00.760Z,965.64
2023-05-09T04:24:00.729Z,965.63
2023-05-09T04:25:00.914Z,965.67
2023-05-09T04:26:00.668Z,965.69
2023-05-09T04:27:00.728Z,965.70
2023-05-09T04:28:00.564Z,965.69
2023-05-09T04:29:00.519Z,965.69
2023-05-09T04:30:00.462Z,965.65
2023-05-09T04:31:00.849Z,965.64
2023-05-09T04:32:00.468Z,965.63
2023-05-09T04:33:00.830Z,965.60
2023-05-09T04:34:00.292Z,965.62
2023-05-09T04:35:00.271Z,965.63
2023-05-09T04:36:00.387Z,965.60
2023-05-09T04:37:00.446Z,965.62
2023-05-09T04:38:00.395Z,965.59
2023-05-09T04:39:00.109Z,965.64
2023-05-09T04:40:00.211Z,965.62
2023-05-09T04:41:00.006Z,965.62
2023-05-09T04:42:00.225Z,965.68
2023-05-09T04:42:59.948Z,965.66
2023-05-09T04:44:00.048Z,965.67
2023-05-09T04:44:59.827Z,965.63
2023-05-09T04:45:59.872Z,965.62
2023-05-09T04:46:59.901Z,965.65
2023-05-09T04:47:59.885Z,965.61
2023-05-09T04:48:59.665Z,965.61
2023-05-09T04:49:59.893Z,965.63
2023-05-09T04:50:59.616Z,965.59
2023-05-09T04:51:59.540Z,965.62
2023-05-09T04:52:59.689Z,965.62
2023-05-09T04:53:59.452Z,965.58
2023-05-09T04:54:59.497Z,965.54
2023-05-09T04:55:59.362Z,965.55
2023-05-09T04:57:09.986Z,965.52
2023-05-09T04:57:59.273Z,965.48
2023-05-09T04:58:59.327Z,965.46
2023-05-09T04:59:59.197Z,965.48
2023-05-09T05:00:59.340Z,965.49
2023-05-09T05:01:59.191Z,965.50
2023-05-09T05:02:59.276Z,965.52
2023-05-09T05:03:59.028Z,965.51
2023-05-09T05:05:10.844Z,965.56
2023-05-09T05:05:58.961Z,965.57
2023-05-09T05:06:58.981Z,965.55
2023-05-09T05:07:58.850Z,965.56
2023-05-09T05:08:59.039Z,965.58
2023-05-09T05:09:59.001Z,965.63
2023-05-09T05:10:58.733Z,965.59
2023-05-09T05:12:02.438Z,965.59
2023-05-09T05:12:58.782Z,965.61
2023-05-09T05:13:58.827Z,965.57
2023-05-09T05:14:58.569Z,965.62
2023-05-09T05:15:58.688Z,965.57
2023-05-09T05:16:58.481Z,965.56
2023-05-09T05:18:00.718Z,965.60
2023-05-09T05:18:58.384Z,965.57
2023-05-09T05:19:58.341Z,965.55
2023-05-09T05:20:58.510Z,965.53
2023-05-09T05:21:58.480Z,965.52
2023-05-09T05:22:58.222Z,965.51
2023-05-09T05:23:58.381Z,965.50
2023-05-09T05:24:58.135Z,965.48
2023-05-09T05:25:58.088Z,965.50
2023-05-09T05:26:58.072Z,965.54
2023-05-09T05:27:58.222Z,965.57
2023-05-09T05:28:57.961Z,965.54
2023-05-09T05:29:58.019Z,965.60
2023-05-09T05:30:57.874Z,965.63
2023-05-09T05:31:57.989Z,965.61
2023-05-09T05:32:57.890Z,965.58
2023-05-09T05:33:57.844Z,965.58
2023-05-09T05:34:57.712Z,965.57
2023-05-09T05:35:57.867Z,965.55
2023-05-09T05:36:57.622Z,965.52
2023-05-09T05:37:57.585Z,965.55
2023-05-09T05:38:57.879Z,965.56
2023-05-09T05:39:57.493Z,965.59
2023-05-09T05:40:57.702Z,965.60
2023-05-09T05:41:57.408Z,965.64
2023-05-09T05:42:57.510Z,965.65
2023-05-09T05:43:57.339Z,965.63
2023-05-09T05:44:57.503Z,965.65
2023-05-09T05:45:57.258Z,965.63
2023-05-09T05:46:57.359Z,965.63
2023-05-09T05:47:57.216Z,965.62
2023-05-09T05:48:57.117Z,965.62
2023-05-09T05:49:57.070Z,965.64
2023-05-09T05:50:57.345Z,965.62
2023-05-09T05:51:56.997Z,965.60
2023-05-09T05:52:57.160Z,965.60
2023-05-09T05:53:56.909Z,965.62
2023-05-09T05:54:56.868Z,965.58
2023-05-09T05:55:56.976Z,965.61
2023-05-09T05:56:56.786Z,965.58
2023-05-09T05:57:57.001Z,965.57
2023-05-09T05:58:56.849Z,965.54
2023-05-09T05:59:56.820Z,965.55
2023-05-09T06:03:49.292Z,965.48
2023-05-09T06:04:48.013Z,965.47
2023-05-09T06:05:48.036Z,965.44
2023-05-09T06:06:47.759Z,965.46
2023-05-09T06:07:47.857Z,965.40
2023-05-09T06:08:47.669Z,965.38
2023-05-09T06:09:48.068Z,965.39
2023-05-09T06:10:47.593Z,965.40
2023-05-09T06:11:47.669Z,965.37
2023-05-09T06:12:47.542Z,965.39
2023-05-09T06:13:47.793Z,965.36
2023-05-09T06:14:48.623Z,965.31
2023-05-09T06:15:47.497Z,965.34
2023-05-09T06:16:47.349Z,965.33
2023-05-09T06:17:47.525Z,965.30
2023-05-09T06:18:47.248Z,965.32
2023-05-09T06:19:47.317Z,965.30
2023-05-09T06:20:47.183Z,965.34
2023-05-09T06:21:47.330Z,965.31
2023-05-09T06:22:47.110Z,965.31
2023-05-09T06:24:01.528Z,965.38
2023-05-09T06:24:47.150Z,965.32
2023-05-09T06:25:47.205Z,965.33
2023-05-09T06:26:47.162Z,965.32
2023-05-09T06:27:46.868Z,965.26
2023-05-09T06:28:46.978Z,965.25
2023-05-09T06:29:46.984Z,965.24
2023-05-09T06:30:46.781Z,965.24
2023-05-09T06:31:47.036Z,965.22
2023-05-09T06:32:46.761Z,965.22
2023-05-09T06:33:46.808Z,965.24
2023-05-09T06:34:46.583Z,965.21
2023-05-09T06:35:46.668Z,965.19
2023-05-09T06:36:46.636Z,965.19
2023-05-09T06:37:48.275Z,965.19
2023-05-09T06:38:46.679Z,965.17
2023-05-09T06:39:46.373Z,965.17
2023-05-09T06:40:46.377Z,965.17
2023-05-09T06:41:46.310Z,965.16
2023-05-09T06:42:46.560Z,965.16
2023-05-09T06:43:46.222Z,965.10
2023-05-09T06:44:46.309Z,965.11
2023-05-09T06:45:46.132Z,965.14
2023-05-09T06:46:46.386Z,965.14
2023-05-09T06:47:46.065Z,965.14
2023-05-09T06:48:46.304Z,965.14
2023-05-09T06:49:45.973Z,965.09
2023-05-09T06:50:46.117Z,965.12
2023-05-09T06:51:45.896Z,965.13
2023-05-09T06:52:45.853Z,965.11
2023-05-09T06:53:46.150Z,965.11
2023-05-09T06:54:45.766Z,965.11
2023-05-09T06:55:45.949Z,965.06
2023-05-09T06:56:45.688Z,965.06
2023-05-09T06:57:45.757Z,965.07
2023-05-09T06:58:45.624Z,965.06
2023-05-09T06:59:45.774Z,965.04
2023-05-09T07:00:45.827Z,965.03
2023-05-09T07:01:45.809Z,965.01
2023-05-09T07:02:45.500Z,964.98
2023-05-09T07:03:45.400Z,964.98
2023-05-09T07:04:45.411Z,964.96
2023-05-09T07:05:45.624Z,964.98
2023-05-09T07:06:45.346Z,964.97
2023-05-09T07:07:45.425Z,964.98
2023-05-09T07:08:45.211Z,964.95
2023-05-09T07:09:45.177Z,964.97
2023-05-09T07:10:45.128Z,964.92
2023-05-09T07:11:45.254Z,964.89
2023-05-09T07:12:45.092Z,964.88
2023-05-09T07:13:45.265Z,964.87
2023-05-09T07:14:44.986Z,964.86
2023-05-09T07:15:45.089Z,964.84
2023-05-09T07:16:45.216Z,964.84
2023-05-09T07:17:44.972Z,964.86
2023-05-09T07:18:45.312Z,964.85
2023-05-09T07:19:44.776Z,964.82
2023-05-09T07:20:44.737Z,964.79
2023-05-09T07:21:44.698Z,964.79
2023-05-09T07:22:44.953Z,964.80
2023-05-09T07:23:44.618Z,964.77
2023-05-09T07:24:44.768Z,964.74
2023-05-09T07:25:44.530Z,964.70
2023-05-09T07:26:44.503Z,964.69
2023-05-09T07:27:44.840Z,964.67
2023-05-09T07:28:44.565Z,964.64
2023-05-09T07:29:44.374Z,964.63
2023-05-09T07:30:44.572Z,964.61
2023-05-09T07:31:44.350Z,964.62
2023-05-09T07:32:44.272Z,964.60
2023-05-09T07:33:44.390Z,964.64
2023-05-09T07:34:44.190Z,964.58
2023-05-09T07:35:44.405Z,964.56
2023-05-09T07:36:44.105Z,964.56
2023-05-09T07:37:44.220Z,964.56
2023-05-09T07:38:44.069Z,964.55
2023-05-09T07:39:44.447Z,964.57
2023-05-09T07:40:43.937Z,964.57
2023-05-09T07:41:44.257Z,964.55
2023-05-09T07:42:43.861Z,964.56
2023-05-09T07:43:43.825Z,964.58
2023-05-09T07:44:43.803Z,964.57
2023-05-09T07:45:44.103Z,964.57
2023-05-09T07:46:43.941Z,964.56
2023-05-09T07:47:43.910Z,964.56
2023-05-09T07:48:43.627Z,964.55
2023-05-09T07:49:43.598Z,964.59
2023-05-09T07:50:43.698Z,964.55
2023-05-09T07:51:43.536Z,964.57
2023-05-09T07:52:43.714Z,964.55
2023-05-09T07:53:43.436Z,964.52
2023-05-09T07:54:43.407Z,964.47
2023-05-09T07:55:43.366Z,964.46
2023-05-09T07:56:43.526Z,964.41
2023-05-09T07:57:43.585Z,964.42
2023-05-09T07:58:43.540Z,964.37
2023-05-09T07:59:43.204Z,964.36
2023-05-09T08:00:43.212Z,964.36
2023-05-09T08:01:43.133Z,964.40
2023-05-09T08:02:43.462Z,964.34
2023-05-09T08:03:43.124Z,964.34
2023-05-09T08:04:43.217Z,964.40
2023-05-09T08:05:43.233Z,964.40
2023-05-09T08:06:44.223Z,964.32
2023-05-09T08:07:42.924Z,964.29
2023-05-09T08:08:43.002Z,964.28
2023-05-09T08:09:42.843Z,964.22
2023-05-09T08:10:43.017Z,964.17
2023-05-09T08:11:43.027Z,964.12
2023-05-09T08:12:42.969Z,964.14
2023-05-09T08:13:42.832Z,964.19
2023-05-09T08:14:42.645Z,964.12
2023-05-09T08:15:43.094Z,964.10
2023-05-09T08:16:42.575Z,964.10
2023-05-09T08:17:42.572Z,964.10
2023-05-09T08:18:42.673Z,964.03
2023-05-09T08:19:42.462Z,964.00
2023-05-09T08:20:42.721Z,964.01
2023-05-09T08:21:42.402Z,964.00
2023-05-09T08:22:42.500Z,963.99
2023-05-09T08:23:42.451Z,964.00
2023-05-09T08:24:42.513Z,964.01
2023-05-09T08:25:42.244Z,963.98
2023-05-09T08:26:42.431Z,964.00
2023-05-09T08:27:42.282Z,964.00
2023-05-09T08:28:42.131Z,963.94
2023-05-09T08:29:42.097Z,963.95
2023-05-09T08:30:42.248Z,963.92
2023-05-09T08:31:42.053Z,963.90
2023-05-09T08:32:42.321Z,963.90
2023-05-09T08:33:42.107Z,963.90
2023-05-09T08:34:41.965Z,963.86
2023-05-09T08:35:43.316Z,963.86
2023-05-09T08:36:41.838Z,963.81
2023-05-09T08:37:41.901Z,963.81
2023-05-09T08:38:41.784Z,963.84
2023-05-09T08:39:41.731Z,963.80
2023-05-09T08:40:41.767Z,963.81
2023-05-09T08:41:41.716Z,963.80
2023-05-09T08:42:41.621Z,963.74
2023-05-09T08:43:41.734Z,963.74
2023-05-09T08:44:41.544Z,963.74
2023-05-09T08:45:41.499Z,963.73
2023-05-09T08:46:41.855Z,963.74
2023-05-09T08:47:41.458Z,963.72
2023-05-09T08:48:41.557Z,963.74
2023-05-09T08:49:41.362Z,963.71
2023-05-09T08:50:41.323Z,963.71
2023-05-09T08:51:41.323Z,963.73
2023-05-09T08:52:41.388Z,963.69
2023-05-09T08:53:41.207Z,963.71
2023-05-09T08:54:41.406Z,963.72
2023-05-09T08:55:41.137Z,963.73
2023-05-09T08:56:41.110Z,963.71
2023-05-09T08:57:41.422Z,963.66
2023-05-09T08:58:41.024Z,963.64
2023-05-09T08:59:41.035Z,963.62
2023-05-09T09:00:40.961Z,963.59
2023-05-09T09:01:40.976Z,963.56
2023-05-09T09:02:40.901Z,963.55
2023-05-09T09:03:41.053Z,963.52
2023-05-09T09:04:40.863Z,963.51
2023-05-09T09:05:42.251Z,963.49
2023-05-09T09:06:40.757Z,963.48
2023-05-09T09:07:40.697Z,963.51
2023-05-09T09:08:40.663Z,963.48
2023-05-09T09:09:40.894Z,963.49
2023-05-09T09:10:40.590Z,963.54
2023-05-09T09:11:40.741Z,963.52
2023-05-09T09:12:40.550Z,963.47
2023-05-09T09:13:40.518Z,963.45
2023-05-09T09:14:40.450Z,963.45
2023-05-09T09:15:40.548Z,963.45
2023-05-09T09:16:40.423Z,963.54
2023-05-09T09:17:40.576Z,963.46
2023-05-09T09:18:40.367Z,963.38
2023-05-09T09:19:40.265Z,963.43
2023-05-09T09:20:40.273Z,963.43
2023-05-09T09:21:40.372Z,963.40
2023-05-09T09:22:40.163Z,963.36
2023-05-09T09:23:41.409Z,963.37
2023-05-09T09:24:40.187Z,963.46
2023-05-09T09:25:40.056Z,963.45
2023-05-09T09:26:41.228Z,963.41
2023-05-09T09:27:39.980Z,963.43
2023-05-09T09:28:40.011Z,963.40
2023-05-09T09:29:40.066Z,963.42
2023-05-09T09:30:39.876Z,963.39
2023-05-09T09:31:40.079Z,963.37
2023-05-09T09:32:39.859Z,963.37
2023-05-09T09:33:39.845Z,963.38
2023-05-09T09:34:39.749Z,963.36
2023-05-09T09:35:39.918Z,963.33
2023-05-09T09:36:39.713Z,963.36
2023-05-09T09:37:39.898Z,963.33
2023-05-09T09:38:39.611Z,963.33
2023-05-09T09:39:39.703Z,963.31
2023-05-09T09:40:39.553Z,963.33
2023-05-09T09:41:39.520Z,963.31
2023-05-09T09:42:39.711Z,963.36
2023-05-09T09:43:39.484Z,963.28
2023-05-09T09:44:39.726Z,963.29
2023-05-09T09:45:39.427Z,963.28
2023-05-09T09:46:39.643Z,963.24
2023-05-09T09:47:39.592Z,963.18
2023-05-09T09:48:39.324Z,963.19
2023-05-09T09:49:39.363Z,963.19
2023-05-09T09:50:39.308Z,963.13
2023-05-09T09:51:39.371Z,963.08
2023-05-09T09:52:39.174Z,963.02
2023-05-09T09:53:39.131Z,962.99
2023-05-09T09:54:39.179Z,962.94
2023-05-09T09:55:39.074Z,962.94
2023-05-09T09:56:40.457Z,962.93
2023-05-09T09:57:39.030Z,962.95
2023-05-09T09:58:39.203Z,962.87
2023-05-09T09:59:38.943Z,962.85
2023-05-09T10:00:39.027Z,962.85
2023-05-09T10:01:38.894Z,962.81
2023-05-09T10:02:40.276Z,962.83
2023-05-09T10:03:38.854Z,962.80
2023-05-09T10:04:38.834Z,962.78
2023-05-09T10:05:38.765Z,962.80
2023-05-09T10:06:38.853Z,962.77
2023-05-09T10:07:38.714Z,962.73
2023-05-09T10:08:38.887Z,962.75
2023-05-09T10:09:38.657Z,962.73
2023-05-09T10:10:38.607Z,962.72
2023-05-09T10:11:38.548Z,962.71
2023-05-09T10:12:38.696Z,962.69
2023-05-09T10:13:38.621Z,962.77
2023-05-09T10:14:38.527Z,962.79
2023-05-09T10:15:49.353Z,962.80
2023-05-09T10:16:43.813Z,962.78
2023-05-09T10:17:38.721Z,962.73
2023-05-09T10:18:38.460Z,962.78
2023-05-09T10:19:39.382Z,962.70
2023-05-09T10:20:38.247Z,962.69
2023-05-09T10:21:38.352Z,962.70
2023-05-09T10:22:38.367Z,962.63
2023-05-09T10:23:38.245Z,962.64
2023-05-09T10:24:38.176Z,962.59
2023-05-09T10:25:38.101Z,962.57
2023-05-09T10:26:38.190Z,962.53
2023-05-09T10:27:38.045Z,962.59
2023-05-09T10:28:38.210Z,962.57
2023-05-09T10:29:38.051Z,962.51
2023-05-09T10:30:38.005Z,962.54
2023-05-09T10:31:37.935Z,962.52
2023-05-09T10:32:38.050Z,962.48
2023-05-09T10:33:37.835Z,962.51
2023-05-09T10:34:38.046Z,962.48
2023-05-09T10:35:37.788Z,962.46
2023-05-09T10:36:37.853Z,962.48
2023-05-09T10:37:37.709Z,962.43
2023-05-09T10:38:37.869Z,962.37
2023-05-09T10:39:37.649Z,962.40
2023-05-09T10:40:37.804Z,962.33
2023-05-09T10:41:37.685Z,962.32
2023-05-09T10:42:37.572Z,962.32
2023-05-09T10:43:37.691Z,962.28
2023-05-09T10:44:37.499Z,962.18
2023-05-09T10:45:37.481Z,962.16
2023-05-09T10:46:37.638Z,962.13
2023-05-09T10:47:37.527Z,962.13
2023-05-09T10:48:37.385Z,962.10
2023-05-09T10:49:37.622Z,962.05
2023-05-09T10:50:37.314Z,962.06
2023-05-09T10:51:37.279Z,962.03
2023-05-09T10:52:37.559Z,961.98
2023-05-09T10:53:37.218Z,961.99
2023-05-09T10:54:37.360Z,961.98
2023-05-09T10:55:37.166Z,961.92
2023-05-09T10:56:37.380Z,961.95
2023-05-09T10:57:37.120Z,961.95
2023-05-09T10:58:37.422Z,961.93
2023-05-09T10:59:37.028Z,961.91
2023-05-09T11:00:37.204Z,961.87
2023-05-09T11:01:37.281Z,961.92
2023-05-09T11:02:37.077Z,961.87
2023-05-09T11:03:37.108Z,961.86
2023-05-09T11:04:37.241Z,961.81
2023-05-09T11:05:36.845Z,961.82
2023-05-09T11:06:37.051Z,961.77
2023-05-09T11:07:36.788Z,961.74
2023-05-09T11:08:36.758Z,961.74
2023-05-09T11:09:36.729Z,961.72
2023-05-09T11:10:36.882Z,961.69
2023-05-09T11:11:36.929Z,961.71
2023-05-09T11:12:36.883Z,961.65
2023-05-09T11:13:36.695Z,961.63
2023-05-09T11:14:36.595Z,961.60
2023-05-09T11:15:36.538Z,961.61
2023-05-09T11:16:36.754Z,961.62
2023-05-09T11:17:36.541Z,961.58
2023-05-09T11:18:36.525Z,961.55
2023-05-09T11:19:36.419Z,961.53
2023-05-09T11:20:37.613Z,961.51
2023-05-09T11:21:36.378Z,961.44
2023-05-09T11:22:37.593Z,961.46
2023-05-09T11:23:36.295Z,961.43
2023-05-09T11:24:36.387Z,961.44
2023-05-09T11:25:36.227Z,961.44
2023-05-09T11:26:36.445Z,961.41
2023-05-09T11:27:36.382Z,961.38
2023-05-09T11:28:36.148Z,961.35
2023-05-09T11:29:36.193Z,961.35
2023-05-09T11:30:36.095Z,961.33
2023-05-09T11:31:36.228Z,961.30
2023-05-09T11:32:36.229Z,961.32
2023-05-09T11:33:35.979Z,961.30
2023-05-09T11:34:36.033Z,961.29
2023-05-09T11:35:35.931Z,961.28
2023-05-09T11:36:35.915Z,961.24
2023-05-09T11:37:36.266Z,961.19
2023-05-09T11:38:35.820Z,961.20
2023-05-09T11:39:35.868Z,961.19
2023-05-09T11:40:35.766Z,961.16
2023-05-09T11:41:35.879Z,961.15
2023-05-09T11:42:35.699Z,961.14
2023-05-09T11:43:36.094Z,961.07
2023-05-09T11:44:35.631Z,961.08
2023-05-09T11:45:35.770Z,961.05
2023-05-09T11:46:35.653Z,961.05
2023-05-09T11:47:35.772Z,961.01
2023-05-09T11:48:35.509Z,961.03
2023-05-09T11:49:35.730Z,961.00
2023-05-09T11:50:35.530Z,961.04
2023-05-09T11:51:35.410Z,961.03
2023-05-09T11:52:36.770Z,960.99
2023-05-09T11:53:35.353Z,961.02
2023-05-09T11:54:35.571Z,960.99
2023-05-09T11:55:35.283Z,960.92
2023-05-09T11:56:35.255Z,960.93
2023-05-09T11:57:35.385Z,960.91
2023-05-09T11:58:35.443Z,960.92
2023-05-09T11:59:35.390Z,960.90
2023-05-09T12:00:35.122Z,960.89
2023-05-09T12:01:35.197Z,960.89
2023-05-09T12:02:35.124Z,960.89
2023-05-09T12:03:35.311Z,960.79
2023-05-09T12:04:35.100Z,960.81
2023-05-09T12:05:35.260Z,960.86
2023-05-09T12:06:34.936Z,960.80
2023-05-09T12:07:34.891Z,960.81
2023-05-09T12:08:35.097Z,960.76
2023-05-09T12:09:35.053Z,960.77
2023-05-09T12:10:34.810Z,960.70
2023-05-09T12:11:35.094Z,960.66
2023-05-09T12:12:34.730Z,960.67
2023-05-09T12:13:34.700Z,960.62
2023-05-09T12:14:34.878Z,960.61
2023-05-09T12:15:34.638Z,960.63
2023-05-09T12:16:35.036Z,960.63
2023-05-09T12:17:34.644Z,960.64
2023-05-09T12:18:34.707Z,960.67
2023-05-09T12:19:34.535Z,960.63
2023-05-09T12:20:34.716Z,960.63
2023-05-09T12:21:34.450Z,960.57
2023-05-09T12:22:34.532Z,960.59
2023-05-09T12:23:34.590Z,960.60
2023-05-09T12:24:34.354Z,960.59
2023-05-09T12:25:34.315Z,960.59
2023-05-09T12:26:34.572Z,960.57
2023-05-09T12:27:34.249Z,960.56
2023-05-09T12:28:34.363Z,960.54
2023-05-09T12:29:34.226Z,960.59
2023-05-09T12:30:34.153Z,960.56